Impacts TAF Board
For situational awareness. Not to be used for flight planning purposes.
IDs:

KSAN - San Diego Intl Arpt, CA, US

Issued at 0901 UTC 18 Jan 2019
Updated at 0916 UTC 18 Jan 2019
Potential Impact None Slight Moderate High
Time<<19/10Z 19/11Z 19/12Z 19/13Z 19/14Z 19/15Z 19/16Z 19/17Z 19/18Z 19/19Z 19/20Z 19/21Z 19/22Z
Type PRVL PRVL
VIS >6 >6
CIG -- --
Cover SCT SCT
FltCat VFR VFR
WX -- --
WDir VRB VRB
WSpd 4 4
WGst -- --
Raw TAF
KSAN 180901Z 1809/1912 VRB03KT 6SM BR VCSH FEW009 BKN012 BKN021
  FM181200 VRB04KT P6SM BKN015
  FM182100 29008KT P6SM SCT015
  FM190100 VRB04KT P6SM SCT010


METAR Board
Radar Display
Forecast Discussion
For situational awareness. Not to be used for flight planning purposes.